Time;durP1;ratioP1;P1;durP2;ratioP2;P2;SDS_P1;SDS_P2;PMS_P1;PMS_P2;Temp;Humidity;BMP_temperature;BMP_pressure;BME280_temperature;BME280_humidity;BME280_pressure;Samples;Min_cycle;Max_cycle;Signal;HPM_P1;HPM_P2
2021/11/01 00:00:52;;;;;;;14.23;6.68;;;28.60;91.60;;;;;;5124290;28;20065;-57
2021/11/01 00:03:19;;;;;;;8.20;5.40;;;28.60;91.60;;;;;;5124463;28;20011;-54
2021/11/01 00:05:47;;;;;;;8.10;5.57;;;28.60;91.70;;;;;;5124422;28;20039;-54
2021/11/01 00:08:13;;;;;;;7.07;4.57;;;28.60;91.70;;;;;;5124310;28;20022;-54
2021/11/01 00:10:40;;;;;;;7.38;4.15;;;28.60;91.70;;;;;;5124073;28;20023;-54
2021/11/01 00:13:07;;;;;;;6.63;3.97;;;28.50;91.80;;;;;;5124177;28;20083;-54
2021/11/01 00:15:34;;;;;;;8.88;5.32;;;28.50;91.80;;;;;;5124172;28;20095;-55
2021/11/01 00:18:01;;;;;;;8.85;4.13;;;28.50;91.80;;;;;;5124400;28;20161;-57
2021/11/01 00:20:28;;;;;;;6.53;3.10;;;28.50;92.00;;;;;;5124461;28;20019;-55
2021/11/01 00:22:55;;;;;;;7.13;2.17;;;28.50;92.10;;;;;;5123979;28;20020;-53
2021/11/01 00:25:22;;;;;;;6.10;1.73;;;28.50;92.20;;;;;;5124033;28;20086;-53
2021/11/01 00:27:49;;;;;;;11.07;2.17;;;28.50;92.20;;;;;;5129035;28;20087;-54
2021/11/01 00:30:16;;;;;;;10.18;2.20;;;28.50;92.30;;;;;;5143369;27;20224;-58
2021/11/01 00:32:43;;;;;;;7.10;2.15;;;28.50;92.30;;;;;;5142037;27;20062;-54
2021/11/01 00:35:10;;;;;;;5.25;1.60;;;28.50;92.30;;;;;;5141260;28;20113;-53
2021/11/01 00:37:36;;;;;;;10.13;1.58;;;28.50;92.30;;;;;;5143267;28;20045;-53
2021/11/01 00:40:04;;;;;;;3.08;1.33;;;28.50;92.30;;;;;;5143885;28;20079;-59
2021/11/01 00:42:31;;;;;;;4.85;1.23;;;28.50;92.20;;;;;;5140520;28;20039;-51
2021/11/01 00:45:01;;;;;;;5.35;1.20;;;28.50;92.10;;;;;;5143930;28;20036;-54
2021/11/01 00:47:27;;;;;;;5.38;1.15;;;28.50;92.10;;;;;;5143343;28;20330;-55
2021/11/01 00:49:55;;;;;;;7.88;1.02;;;28.50;92.10;;;;;;5145146;27;20034;-56
2021/11/01 00:52:26;;;;;;;5.13;1.38;;;28.40;92.00;;;;;;5161253;27;20102;-52
2021/11/01 00:54:59;;;;;;;6.57;1.30;;;28.40;92.00;;;;;;5139633;28;20308;-52
2021/11/01 00:57:26;;;;;;;7.53;1.15;;;28.40;92.00;;;;;;5143428;28;20031;-53
2021/11/01 00:59:53;;;;;;;6.53;1.10;;;28.40;92.00;;;;;;5143990;28;20059;-52
2021/11/01 01:02:21;;;;;;;4.95;1.00;;;28.40;92.10;;;;;;5143683;28;20019;-53
2021/11/01 01:04:48;;;;;;;1.88;0.77;;;28.40;92.10;;;;;;5143426;28;20333;-53
2021/11/01 01:07:14;;;;;;;3.85;0.90;;;28.40;92.10;;;;;;5143634;28;20035;-51
2021/11/01 01:09:41;;;;;;;3.25;1.00;;;28.40;92.10;;;;;;5142496;28;20208;-52
2021/11/01 01:12:09;;;;;;;3.70;0.90;;;28.30;92.10;;;;;;5125193;28;20250;-47
2021/11/01 01:14:44;;;;;;;3.60;0.80;;;28.30;92.10;;;;;;5143409;28;20045;-54
2021/11/01 01:17:11;;;;;;;4.32;0.80;;;28.30;92.10;;;;;;5139843;27;20238;-55
2021/11/01 01:19:55;;;;;;;2.50;1.15;;;28.30;92.00;;;;;;5139167;27;20019;-54
2021/11/01 01:22:28;;;;;;;3.65;0.73;;;28.30;92.00;;;;;;5125393;27;20023;-51
2021/11/01 01:25:44;;;;;;;3.50;0.80;;;28.30;92.00;;;;;;5147393;27;20106;-56
2021/11/01 01:28:02;;;;;;;1.95;0.88;;;28.20;91.90;;;;;;5138142;27;20043;-53
2021/11/01 01:30:29;;;;;;;1.30;0.70;;;28.20;91.90;;;;;;5147386;27;20019;-52
2021/11/01 01:32:56;;;;;;;2.95;0.60;;;28.20;92.00;;;;;;5147427;27;20029;-52
2021/11/01 01:35:23;;;;;;;3.90;1.08;;;28.20;92.00;;;;;;5145432;27;20011;-52
2021/11/01 01:37:53;;;;;;;4.35;1.00;;;28.20;91.90;;;;;;5138785;27;20031;-51
2021/11/01 01:40:20;;;;;;;2.63;0.77;;;28.10;91.90;;;;;;5145052;27;20019;-51
2021/11/01 01:42:47;;;;;;;4.63;0.70;;;28.10;92.00;;;;;;5143276;27;20335;-52
2021/11/01 01:45:14;;;;;;;6.68;1.08;;;28.00;92.00;;;;;;5123264;27;20037;-54
2021/11/01 01:47:42;;;;;;;11.18;1.40;;;28.00;92.20;;;;;;5145922;27;20443;-48
2021/11/01 01:50:14;;;;;;;7.88;1.10;;;28.00;92.20;;;;;;5137788;27;20031;-50
2021/11/01 01:52:43;;;;;;;9.27;1.30;;;28.00;92.30;;;;;;5144249;27;20035;-50
2021/11/01 01:55:14;;;;;;;8.02;1.38;;;28.00;92.30;;;;;;5128378;27;20211;-52
2021/11/01 01:57:40;;;;;;;6.13;1.50;;;27.90;92.20;;;;;;5120985;27;20035;-50
2021/11/01 02:00:20;;;;;;;12.00;1.67;;;27.90;92.30;;;;;;5139706;27;20022;-51
2021/11/01 02:02:48;;;;;;;7.80;1.33;;;27.90;92.40;;;;;;5130150;27;20345;-51
2021/11/01 02:05:16;;;;;;;4.18;1.10;;;27.90;92.30;;;;;;5146414;27;20031;-48
2021/11/01 02:08:02;;;;;;;4.15;0.88;;;27.90;92.30;;;;;;5146907;27;20019;-51
2021/11/01 02:10:34;;;;;;;4.60;0.90;;;27.80;92.30;;;;;;5147193;27;20027;-52
2021/11/01 02:13:10;;;;;;;;;;;27.80;92.20;;;;;;5147421;27;20015;-52
2021/11/01 02:15:44;;;;;;;4.43;1.20;;;27.80;92.20;;;;;;5142962;27;19911;-52
2021/11/01 02:18:13;;;;;;;6.90;0.95;;;27.80;92.20;;;;;;5121351;28;20016;-49
2021/11/01 02:20:46;;;;;;;6.47;0.85;;;27.80;92.20;;;;;;5133891;27;20041;-53
2021/11/01 02:23:28;;;;;;;4.82;0.93;;;27.70;92.20;;;;;;5167763;27;20250;-53
2021/11/01 02:25:57;;;;;;;4.90;0.80;;;27.70;92.20;;;;;;5167623;27;20058;-53
2021/11/01 02:28:31;;;;;;;3.53;0.90;;;27.70;92.20;;;;;;5167327;27;20082;-53
2021/11/01 02:30:59;;;;;;;2.83;0.70;;;27.70;92.20;;;;;;5147424;27;20023;-54
2021/11/01 02:33:27;;;;;;;5.43;0.85;;;27.70;92.10;;;;;;5129231;27;20022;-53
2021/11/01 02:35:55;;;;;;;3.25;0.70;;;27.70;92.00;;;;;;5131522;27;20270;-53
2021/11/01 02:38:25;;;;;;;3.70;0.95;;;27.60;92.00;;;;;;5146217;27;20034;-52
2021/11/01 02:40:53;;;;;;;2.38;0.90;;;27.70;92.00;;;;;;5146319;27;20026;-53
2021/11/01 02:43:21;;;;;;;3.35;0.90;;;27.60;91.90;;;;;;5146176;27;20045;-55
2021/11/01 02:45:48;;;;;;;8.77;1.60;;;27.60;91.90;;;;;;5146184;27;20027;-53
2021/11/01 02:48:15;;;;;;;3.83;0.70;;;27.50;92.00;;;;;;5146168;27;20019;-54
2021/11/01 02:50:42;;;;;;;3.47;1.08;;;27.50;91.90;;;;;;5146480;27;20109;-55
2021/11/01 02:53:09;;;;;;;3.22;0.70;;;27.50;91.90;;;;;;5146218;27;20035;-55
2021/11/01 02:55:35;;;;;;;6.32;1.10;;;27.50;91.90;;;;;;5148834;27;20030;-52
2021/11/01 02:58:04;;;;;;;5.38;1.02;;;27.50;92.00;;;;;;5156344;27;20040;-53
2021/11/01 03:00:32;;;;;;;4.10;0.90;;;27.50;92.10;;;;;;5155633;27;20076;-51
2021/11/01 03:02:59;;;;;;;6.60;0.70;;;27.40;92.20;;;;;;5149554;27;20078;-46
2021/11/01 03:05:28;;;;;;;5.57;0.80;;;27.30;92.40;;;;;;5159217;27;20124;-55
2021/11/01 03:07:58;;;;;;;4.53;0.70;;;27.30;92.60;;;;;;5166667;27;20033;-49
2021/11/01 03:10:26;;;;;;;2.35;0.65;;;27.20;92.60;;;;;;5165742;27;20021;-52
2021/11/01 03:12:54;;;;;;;6.63;1.73;;;27.30;92.60;;;;;;5147792;27;20297;-51
2021/11/01 03:15:24;;;;;;;6.65;2.30;;;27.20;92.70;;;;;;5166333;27;20050;-51
2021/11/01 03:17:58;;;;;;;6.80;2.00;;;27.30;92.70;;;;;;5166251;27;20327;-50
2021/11/01 03:20:29;;;;;;;5.68;3.15;;;27.30;92.80;;;;;;5166568;27;20044;-50
2021/11/01 03:22:59;;;;;;;8.65;5.13;;;27.30;92.70;;;;;;5166354;27;20019;-48
2021/11/01 03:25:34;;;;;;;14.85;10.13;;;27.30;92.80;;;;;;5166500;27;20030;-53
2021/11/01 03:28:04;;;;;;;16.55;12.32;;;27.30;92.90;;;;;;5166277;27;20082;-50
2021/11/01 03:30:33;;;;;;;19.80;11.18;;;27.30;92.90;;;;;;5166669;27;20308;-52
2021/11/01 03:33:00;;;;;;;9.68;6.10;;;27.30;93.00;;;;;;5165959;27;20033;-50
2021/11/01 03:35:29;;;;;;;6.93;5.65;;;27.30;92.90;;;;;;5166227;27;20224;-52
2021/11/01 03:37:58;;;;;;;8.40;4.60;;;27.30;92.90;;;;;;5166054;27;20048;-52
2021/11/01 03:40:28;;;;;;;9.27;3.75;;;27.30;92.90;;;;;;5166220;27;20019;-50
2021/11/01 03:42:56;;;;;;;5.10;2.80;;;27.30;92.90;;;;;;5165884;27;20107;-53
2021/11/01 03:45:25;;;;;;;4.15;2.40;;;27.30;92.80;;;;;;5166202;27;20030;-53
2021/11/01 03:48:04;;;;;;;6.28;2.80;;;27.30;92.90;;;;;;5155738;27;20036;-56
2021/11/01 03:50:39;;;;;;;4.05;1.95;;;27.30;93.00;;;;;;5145242;27;20051;-53
2021/11/01 03:53:06;;;;;;;5.75;1.83;;;27.30;93.00;;;;;;5144929;27;20067;-54
2021/11/01 03:55:33;;;;;;;8.52;2.00;;;27.30;93.00;;;;;;5149451;27;20035;-53
2021/11/01 03:58:00;;;;;;;9.55;1.63;;;27.30;93.20;;;;;;5158372;27;20022;-55
2021/11/01 04:00:30;;;;;;;7.60;1.75;;;27.30;93.10;;;;;;5147311;27;20027;-52
2021/11/01 04:02:58;;;;;;;8.50;1.42;;;27.30;93.10;;;;;;5143108;27;20207;-53
2021/11/01 04:05:25;;;;;;;8.07;1.23;;;27.20;93.10;;;;;;5130986;27;20102;-53
2021/11/01 04:07:52;;;;;;;5.10;1.17;;;27.30;93.10;;;;;;5124138;28;20027;-52
2021/11/01 04:10:18;;;;;;;4.65;0.95;;;27.30;93.00;;;;;;5124663;28;20024;-52
2021/11/01 04:12:45;;;;;;;4.32;1.40;;;27.20;93.00;;;;;;5124594;28;20015;-52
2021/11/01 04:15:16;;;;;;;9.80;2.45;;;27.20;93.00;;;;;;5124186;28;20027;-53
2021/11/01 04:17:49;;;;;;;10.95;5.38;;;27.20;93.00;;;;;;5122765;28;20204;-52
2021/11/01 04:22:47;;;;;;;13.55;6.68;;;27.20;93.10;;;;;;5133781;28;20174;-55
2021/11/01 04:25:15;;;;;;;11.02;6.70;;;27.20;93.20;;;;;;5123062;28;20076;-53
2021/11/01 04:27:42;;;;;;;11.48;4.57;;;27.20;93.20;;;;;;5122943;28;20012;-52
2021/11/01 04:30:10;;;;;;;12.25;3.42;;;27.20;93.10;;;;;;5123466;28;20196;-53
2021/11/01 04:32:42;;;;;;;5.55;2.45;;;27.20;93.10;;;;;;5124030;28;20019;-54
2021/11/01 04:35:54;;;;;;;5.00;2.00;;;27.20;93.10;;;;;;5123846;28;20064;-52
2021/11/01 04:38:27;;;;;;;5.72;1.65;;;27.20;93.10;;;;;;5115687;28;20019;-55
2021/11/01 04:41:03;;;;;;;4.45;1.70;;;27.10;93.00;;;;;;5123672;28;20213;-53
2021/11/01 04:54:14;;;;;;;7.43;1.40;;;27.10;93.10;;;;;;5132917;28;20042;-53
2021/11/01 04:56:44;;;;;;;3.35;1.27;;;27.10;93.20;;;;;;5145090;27;20166;-52
2021/11/01 04:59:10;;;;;;;4.53;1.20;;;27.10;93.30;;;;;;5165631;27;20030;-52
2021/11/01 05:01:44;;;;;;;4.05;1.25;;;27.10;93.30;;;;;;5169231;27;20011;-53
2021/11/01 05:04:15;;;;;;;2.00;0.90;;;27.00;93.20;;;;;;5169327;27;20027;-53
2021/11/01 05:06:48;;;;;;;3.85;1.20;;;27.00;93.20;;;;;;5169026;27;20027;-53
2021/11/01 05:09:37;;;;;;;3.53;1.00;;;27.10;93.30;;;;;;5169175;27;20022;-53
2021/11/01 05:20:01;;;;;;;2.95;0.80;;;27.00;93.40;;;;;;5169319;27;20032;-52
2021/11/01 05:22:36;;;;;;;1.38;0.70;;;27.00;93.50;;;;;;5168770;27;20018;-53
2021/11/01 05:25:15;;;;;;;4.80;1.00;;;27.00;93.50;;;;;;5169321;27;20022;-55
2021/11/01 05:27:48;;;;;;;2.08;0.75;;;27.00;93.50;;;;;;5168668;27;20029;-54
2021/11/01 05:30:19;;;;;;;6.20;0.98;;;27.00;93.50;;;;;;5169170;27;20023;-55
2021/11/01 05:35:31;;;;;;;3.13;0.77;;;26.90;93.50;;;;;;5169046;27;20079;-53
2021/11/01 05:37:58;;;;;;;8.07;2.13;;;26.90;93.50;;;;;;5168731;27;20014;-53
2021/11/01 05:40:25;;;;;;;6.72;2.38;;;26.90;93.50;;;;;;5168816;27;20027;-53
2021/11/01 05:42:52;;;;;;;8.38;2.30;;;26.90;93.50;;;;;;5168291;27;20222;-54
2021/11/01 05:45:19;;;;;;;4.70;1.80;;;26.90;93.50;;;;;;5168775;27;20216;-54
2021/11/01 05:47:51;;;;;;;7.93;1.60;;;26.90;93.50;;;;;;5168198;27;20014;-55
2021/11/01 05:50:19;;;;;;;4.40;1.45;;;26.90;93.60;;;;;;5168774;27;20094;-54
2021/11/01 05:52:46;;;;;;;2.53;1.20;;;26.90;93.50;;;;;;5168093;27;20015;-58
2021/11/01 06:01:16;;;;;;;9.48;1.67;;;26.80;93.40;;;;;;5154372;27;20333;-55
2021/11/01 06:04:02;;;;;;;5.15;1.20;;;26.90;93.50;;;;;;5168051;27;20025;-55
2021/11/01 06:14:26;;;;;;;6.18;1.40;;;26.80;93.20;;;;;;5168141;27;20198;-55
2021/11/01 06:16:52;;;;;;;2.72;0.98;;;26.80;93.20;;;;;;5167614;27;20019;-55
2021/11/01 06:19:19;;;;;;;4.22;1.25;;;26.80;93.20;;;;;;5167616;27;20022;-55
2021/11/01 06:21:48;;;;;;;7.30;1.65;;;26.80;93.10;;;;;;5167808;27;20019;-54
2021/11/01 06:27:00;;;;;;;3.92;2.00;;;26.80;93.10;;;;;;5165198;27;20211;-54
2021/11/01 06:29:35;;;;;;;5.38;2.78;;;26.80;93.10;;;;;;5164199;27;20047;-53
2021/11/01 06:32:17;;;;;;;8.60;2.42;;;26.80;93.20;;;;;;5167407;27;20315;-53
2021/11/01 06:40:36;;;;;;;2.60;1.48;;;26.70;93.10;;;;;;5167616;27;20022;-54
2021/11/01 06:43:26;;;;;;;2.08;0.95;;;26.70;93.10;;;;;;5166936;27;20362;-53
2021/11/01 07:15:33;;;;;;;2.78;0.90;;;26.50;92.80;;;;;;5167172;27;20025;-59
2021/11/01 07:18:08;;;;;;;2.22;0.60;;;26.50;92.70;;;;;;5166771;27;20248;-59
2021/11/01 08:36:45;;;;;;;0.75;0.28;;;26.20;92.90;;;;;;5128246;28;20019;-54
2021/11/01 08:45:06;;;;;;;4.78;0.40;;;26.10;92.90;;;;;;5128404;28;20043;-54
2021/11/01 09:04:03;;;;;;;0.75;0.43;;;26.00;92.90;;;;;;5138611;27;20019;-54
2021/11/01 09:20:08;;;;;;;3.08;1.15;;;26.00;93.10;;;;;;5148459;27;20335;-55
2021/11/01 09:27:58;;;;;;;1.88;0.50;;;26.00;93.20;;;;;;5147971;27;20033;-52
2021/11/01 09:35:43;;;;;;;3.10;0.40;;;26.00;93.30;;;;;;5147856;27;20044;-55
2021/11/01 09:42:00;;;;;;;6.70;0.50;;;26.00;93.50;;;;;;5083384;28;20085;-54
2021/11/01 09:44:30;;;;;;;2.95;0.57;;;26.00;93.50;;;;;;5136563;27;20053;-56
2021/11/01 09:46:59;;;;;;;3.78;0.40;;;26.00;93.50;;;;;;5163214;27;20023;-57
2021/11/01 09:49:27;;;;;;;3.75;0.47;;;26.00;93.50;;;;;;5168410;27;20045;-54
2021/11/01 09:51:58;;;;;;;3.67;0.50;;;26.00;93.50;;;;;;5161421;27;20035;-54
2021/11/01 09:54:27;;;;;;;2.28;0.52;;;26.00;93.60;;;;;;5168393;27;20027;-54
2021/11/01 09:59:41;;;;;;;5.88;0.68;;;26.00;93.60;;;;;;5168397;27;20238;-53
2021/11/01 10:02:10;;;;;;;7.85;0.98;;;26.00;93.60;;;;;;5166821;27;20067;-47
2021/11/01 10:04:40;;;;;;;4.78;0.82;;;26.00;93.70;;;;;;5166632;27;20018;-48
2021/11/01 10:07:32;;;;;;;5.82;0.90;;;26.00;93.70;;;;;;5167870;27;20015;-48
2021/11/01 10:10:08;;;;;;;5.57;0.80;;;26.00;93.80;;;;;;5167863;27;20271;-53
2021/11/01 10:12:37;;;;;;;6.30;0.80;;;26.00;93.80;;;;;;5166927;27;20096;-52
2021/11/01 10:18:17;;;;;;;4.68;0.80;;;26.10;93.60;;;;;;5165682;27;20036;-51
2021/11/01 10:20:52;;;;;;;4.75;0.90;;;26.10;93.50;;;;;;5164714;27;20026;-53
2021/11/01 10:23:33;;;;;;;8.85;1.00;;;26.10;93.50;;;;;;5163774;27;20058;-46
2021/11/01 10:26:10;;;;;;;3.05;0.80;;;26.20;93.50;;;;;;5163958;27;20027;-45
2021/11/01 10:28:37;;;;;;;2.67;0.70;;;26.20;93.40;;;;;;5164542;27;20089;-45
2021/11/01 10:31:08;;;;;;;4.60;0.90;;;26.20;93.40;;;;;;5165803;27;20123;-46
2021/11/01 10:33:43;;;;;;;6.00;1.02;;;26.20;93.30;;;;;;5165887;27;20038;-48
2021/11/01 10:36:11;;;;;;;4.93;1.10;;;26.30;93.30;;;;;;5165823;27;20232;-45
2021/11/01 10:38:42;;;;;;;4.82;0.80;;;26.20;93.30;;;;;;5166792;27;20045;-47
2021/11/01 10:41:24;;;;;;;5.93;1.10;;;26.30;93.30;;;;;;5167311;27;20028;-49
2021/11/01 10:58:06;;;;;;;7.82;2.83;;;26.30;93.10;;;;;;5166613;27;20018;-45
2021/11/01 11:14:45;;;;;;;8.43;2.50;;;26.30;93.10;;;;;;5166924;27;20025;-45
2021/11/01 11:17:22;;;;;;;4.47;2.72;;;26.30;93.10;;;;;;5166421;27;20025;-51
2021/11/01 11:20:19;;;;;;;5.35;2.03;;;26.30;93.10;;;;;;5166806;27;20371;-52
2021/11/01 11:37:43;;;;;;;6.15;3.13;;;26.50;93.00;;;;;;5166210;27;20371;-52
2021/11/01 11:48:34;;;;;;;5.95;2.40;;;26.60;93.00;;;;;;5145249;27;20060;-49
2021/11/01 11:51:10;;;;;;;7.90;2.67;;;26.60;93.00;;;;;;5144934;27;20019;-51
2021/11/01 11:53:57;;;;;;;8.50;3.03;;;26.60;92.90;;;;;;5144976;27;20019;-48
2021/11/01 11:56:32;;;;;;;9.23;2.65;;;26.60;93.00;;;;;;5145279;27;20303;-49
2021/11/01 11:59:10;;;;;;;8.82;2.50;;;26.60;93.00;;;;;;5145083;27;20032;-44
2021/11/01 12:01:42;;;;;;;5.30;2.50;;;26.60;93.00;;;;;;5145078;27;20360;-45
2021/11/01 12:04:29;;;;;;;8.98;2.13;;;26.60;93.00;;;;;;5145229;27;20064;-45
2021/11/01 12:07:02;;;;;;;8.20;2.22;;;26.60;93.00;;;;;;5144058;27;20027;-46
2021/11/01 12:12:56;;;;;;;5.00;2.08;;;26.70;93.00;;;;;;5131578;27;20219;-50
2021/11/01 12:18:01;;;;;;;3.90;1.80;;;26.70;93.00;;;;;;5144673;27;20030;-50
2021/11/01 12:20:28;;;;;;;4.55;1.95;;;26.70;93.00;;;;;;5145121;28;20023;-44
2021/11/01 12:23:04;;;;;;;9.15;2.17;;;26.80;93.10;;;;;;5144417;28;20026;-46
2021/11/01 12:25:37;;;;;;;7.57;1.98;;;26.70;93.00;;;;;;5144935;28;20029;-44
2021/11/01 12:28:06;;;;;;;8.05;1.92;;;26.80;93.00;;;;;;5144794;28;20023;-53
2021/11/01 12:30:43;;;;;;;5.10;2.05;;;26.80;93.00;;;;;;5126595;28;20030;-53
2021/11/01 12:33:11;;;;;;;3.88;1.92;;;26.80;93.00;;;;;;5144536;28;20192;-49
2021/11/01 12:35:47;;;;;;;4.40;2.10;;;26.80;93.00;;;;;;5144603;28;20203;-49
2021/11/01 12:38:19;;;;;;;5.40;1.90;;;26.80;93.00;;;;;;5144553;28;20023;-55
2021/11/01 12:40:52;;;;;;;7.93;1.85;;;26.80;93.00;;;;;;5145052;28;20082;-53
2021/11/01 12:46:35;;;;;;;7.72;2.05;;;26.80;93.10;;;;;;5165424;27;20038;-53
2021/11/01 12:57:35;;;;;;;7.45;1.60;;;26.90;93.10;;;;;;5165378;27;20045;-53
2021/11/01 13:00:03;;;;;;;4.90;1.52;;;26.90;93.10;;;;;;5165671;27;20019;-53
2021/11/01 13:02:34;;;;;;;4.05;1.55;;;26.90;93.00;;;;;;5165193;27;20116;-53
2021/11/01 13:05:06;;;;;;;6.13;1.85;;;26.90;93.10;;;;;;5165461;27;20023;-53
2021/11/01 13:07:50;;;;;;;5.03;1.40;;;26.90;93.00;;;;;;5165091;27;20045;-53
2021/11/01 13:10:27;;;;;;;4.72;1.45;;;26.90;93.10;;;;;;5165694;27;20034;-47
2021/11/01 13:19:02;;;;;;;1.70;1.08;;;26.90;93.00;;;;;;5167543;27;20110;-43
2021/11/01 13:21:42;;;;;;;2.47;1.42;;;27.00;92.90;;;;;;5168853;27;20029;-46
2021/11/01 13:24:11;;;;;;;2.10;1.08;;;27.00;93.00;;;;;;5169048;27;20340;-43
2021/11/01 13:26:54;;;;;;;3.10;1.30;;;27.00;92.90;;;;;;5168593;27;20029;-47
2021/11/01 13:37:32;;;;;;;2.80;0.93;;;27.10;92.80;;;;;;5168670;27;20018;-53
2021/11/01 13:40:00;;;;;;;3.95;1.10;;;27.10;92.80;;;;;;5168941;27;20026;-52
2021/11/01 13:42:26;;;;;;;3.55;1.33;;;27.10;92.90;;;;;;5167980;27;20064;-55
2021/11/01 13:44:53;;;;;;;4.32;1.30;;;27.10;92.80;;;;;;5168925;27;20057;-56
2021/11/01 13:47:20;;;;;;;2.25;1.13;;;27.20;92.80;;;;;;5168738;27;20307;-54
2021/11/01 13:49:49;;;;;;;4.78;1.20;;;27.20;92.80;;;;;;5168636;27;20022;-54
2021/11/01 13:55:44;;;;;;;4.70;1.17;;;27.20;92.70;;;;;;5168742;27;20015;-48
2021/11/01 13:58:04;;;;;;;4.18;1.02;;;27.30;92.60;;;;;;5157073;27;20253;-46
2021/11/01 14:10:51;;;;;;;3.40;1.05;;;27.30;92.50;;;;;;5168090;27;20082;-51
2021/11/01 14:14:32;;;;;;;2.75;0.90;;;27.40;92.20;;;;;;5167887;27;20025;-48
2021/11/01 14:17:07;;;;;;;3.22;1.00;;;27.40;92.00;;;;;;5167620;27;20018;-55
2021/11/01 14:27:46;;;;;;;2.60;0.80;;;27.50;91.80;;;;;;5167636;27;20428;-52
2021/11/01 14:58:32;;;;;;;1.05;0.70;;;27.70;91.60;;;;;;5167012;27;20013;-49
2021/11/01 15:01:13;;;;;;;4.35;0.88;;;27.70;91.60;;;;;;5166709;27;20026;-45
2021/11/01 15:19:59;;;;;;;2.20;1.25;;;27.80;91.40;;;;;;5166503;27;20244;-46
2021/11/01 15:25:36;;;;;;;2.45;1.35;;;27.80;91.30;;;;;;5166768;27;20043;-47
2021/11/01 15:31:17;;;;;;;3.00;1.60;;;27.90;91.20;;;;;;5092507;27;20236;-45
2021/11/01 16:19:43;;;;;;;2.85;1.30;;;28.30;90.40;;;;;;5165595;27;20090;-48
2021/11/01 16:22:12;;;;;;;6.32;1.42;;;28.30;90.30;;;;;;5165082;27;20040;-48
2021/11/01 16:24:39;;;;;;;3.80;1.42;;;28.30;90.20;;;;;;5165492;27;20034;-47
2021/11/01 16:27:08;;;;;;;1.77;1.33;;;28.30;90.30;;;;;;5165605;27;20019;-47
2021/11/01 16:29:59;;;;;;;2.47;1.48;;;28.30;90.20;;;;;;5165543;27;20211;-47
2021/11/01 16:32:41;;;;;;;3.00;1.67;;;28.40;90.10;;;;;;5165020;27;20027;-47
2021/11/01 16:35:11;;;;;;;3.55;1.60;;;28.40;90.00;;;;;;5165816;27;20050;-46
2021/11/01 16:37:49;;;;;;;1.88;1.40;;;28.40;90.00;;;;;;5165338;27;20033;-46
2021/11/01 16:40:16;;;;;;;2.95;1.60;;;28.40;90.00;;;;;;5165593;27;20018;-48
2021/11/01 16:42:45;;;;;;;2.30;1.42;;;28.40;90.00;;;;;;5165220;27;20064;-48
2021/11/01 16:45:24;;;;;;;1.75;1.40;;;28.50;89.70;;;;;;5165383;27;20045;-49
2021/11/01 16:47:51;;;;;;;2.92;1.58;;;28.40;89.90;;;;;;5165283;27;20219;-46
2021/11/01 16:50:18;;;;;;;2.67;1.70;;;28.50;89.90;;;;;;5165130;27;20219;-50
2021/11/01 16:52:47;;;;;;;2.83;1.42;;;28.50;89.90;;;;;;5165758;27;20019;-51
2021/11/01 16:55:23;;;;;;;3.00;1.80;;;28.50;89.30;;;;;;5169776;27;20031;-52
2021/11/01 16:57:58;;;;;;;3.05;1.65;;;28.50;89.60;;;;;;5169350;27;20015;-48
2021/11/01 17:03:19;;;;;;;1.90;1.70;;;28.60;89.40;;;;;;5169046;27;20007;-49
2021/11/01 17:06:00;;;;;;;3.88;1.52;;;28.60;89.20;;;;;;5168607;27;20031;-52
2021/11/01 17:22:43;;;;;;;5.40;1.67;;;28.60;89.00;;;;;;5168745;27;20238;-54
2021/11/01 17:25:43;;;;;;;3.05;1.60;;;28.60;89.00;;;;;;5169117;27;20199;-50
2021/11/01 17:31:16;;;;;;;4.05;1.90;;;28.60;88.90;;;;;;5169209;27;20018;-51
2021/11/01 18:38:24;;;;;;;8.15;2.58;;;29.00;88.50;;;;;;5148619;27;20057;-49
2021/11/01 18:43:32;;;;;;;9.38;2.67;;;29.00;88.30;;;;;;5166708;27;20350;-46
2021/11/01 18:46:13;;;;;;;12.60;2.83;;;29.10;88.30;;;;;;5166630;27;20098;-47
2021/11/01 18:54:05;;;;;;;5.97;2.60;;;29.10;88.10;;;;;;5166625;27;20237;-52
2021/11/01 18:56:35;;;;;;;6.10;2.47;;;29.10;87.90;;;;;;5166757;27;20091;-53
2021/11/01 18:59:07;;;;;;;5.05;2.70;;;29.10;87.70;;;;;;5166622;27;20067;-49
2021/11/01 19:01:43;;;;;;;4.57;2.45;;;29.10;86.90;;;;;;5148381;27;20022;-55
2021/11/01 19:04:21;;;;;;;6.95;2.67;;;29.10;87.20;;;;;;5167141;27;20030;-48
2021/11/01 19:06:58;;;;;;;5.53;2.67;;;29.10;87.70;;;;;;5148253;27;20029;-51
2021/11/01 21:26:07;;;;;;;3.17;2.20;;;29.30;87.30;;;;;;5153166;27;20218;-53
2021/11/01 21:28:34;;;;;;;4.50;2.45;;;29.40;87.50;;;;;;5168172;27;20018;-49
2021/11/01 21:31:01;;;;;;;3.25;2.38;;;29.40;87.50;;;;;;5168544;27;20023;-52
2021/11/01 21:33:32;;;;;;;5.38;2.30;;;29.40;87.60;;;;;;5168255;27;20029;-49
2021/11/01 21:36:05;;;;;;;3.92;2.58;;;29.30;87.50;;;;;;5168178;27;20063;-49
2021/11/01 21:38:32;;;;;;;5.88;2.40;;;29.40;87.50;;;;;;5167713;27;20322;-47
2021/11/01 21:40:59;;;;;;;6.18;2.70;;;29.30;87.60;;;;;;5168162;27;20338;-47
2021/11/01 21:43:25;;;;;;;6.18;2.85;;;29.30;87.60;;;;;;5168349;27;20114;-49
2021/11/01 21:45:52;;;;;;;9.60;2.88;;;29.40;87.80;;;;;;5168362;27;20053;-48
2021/11/01 21:48:19;;;;;;;3.90;2.50;;;29.40;87.80;;;;;;5149668;27;20018;-48
2021/11/01 21:50:47;;;;;;;3.97;2.17;;;29.30;87.70;;;;;;5167945;27;20342;-46
2021/11/01 21:53:16;;;;;;;4.40;2.25;;;29.30;87.80;;;;;;5168647;27;20030;-50
2021/11/01 21:55:43;;;;;;;20.85;3.55;;;29.30;87.80;;;;;;5168736;27;20021;-52
2021/11/01 22:17:43;;;;;;;6.97;2.70;;;29.30;88.50;;;;;;5167692;27;20094;-57
2021/11/01 22:20:12;;;;;;;10.40;2.97;;;29.30;88.50;;;;;;5166968;27;20027;-53
2021/11/01 22:23:06;;;;;;;11.75;2.78;;;29.30;88.60;;;;;;5167506;27;20019;-50
2021/11/01 22:25:37;;;;;;;7.18;3.08;;;29.20;88.70;;;;;;5167507;27;20102;-48
2021/11/01 22:39:02;;;;;;;8.10;3.58;;;29.20;89.00;;;;;;5168402;27;20014;-52
2021/11/01 22:57:24;;;;;;;10.27;4.40;;;29.10;89.40;;;;;;5166799;27;20086;-50
2021/11/01 22:59:52;;;;;;;7.65;4.57;;;29.10;89.50;;;;;;5167524;27;20042;-57
2021/11/01 23:02:19;;;;;;;8.73;5.40;;;29.00;89.40;;;;;;5166626;27;20022;-50
2021/11/01 23:04:51;;;;;;;11.90;4.97;;;29.10;89.50;;;;;;5167220;27;20034;-54
2021/11/01 23:32:08;;;;;;;14.73;6.18;;;29.00;89.70;;;;;;5166292;27;20350;-46
2021/11/01 23:34:35;;;;;;;16.33;6.88;;;28.90;89.60;;;;;;5166279;27;20266;-45
2021/11/01 23:37:02;;;;;;;10.20;6.05;;;28.90;89.60;;;;;;5165934;27;20027;-48
2021/11/01 23:39:29;;;;;;;9.00;6.30;;;28.90;89.60;;;;;;5166352;27;20022;-50
2021/11/01 23:41:55;;;;;;;9.90;6.10;;;28.90;89.70;;;;;;5147800;27;20025;-48
2021/11/01 23:44:22;;;;;;;7.63;5.40;;;28.90;89.70;;;;;;5166093;27;20043;-50
2021/11/01 23:46:49;;;;;;;10.68;5.53;;;28.90;89.70;;;;;;5166062;27;20026;-48
2021/11/01 23:49:16;;;;;;;11.68;6.68;;;28.90;89.70;;;;;;5165987;27;20018;-51
2021/11/01 23:51:58;;;;;;;15.65;10.57;;;28.90;89.80;;;;;;5165712;27;20047;-49
2021/11/01 23:54:37;;;;;;;17.88;12.10;;;28.90;89.90;;;;;;5165876;27;20023;-46
2021/11/01 23:57:03;;;;;;;15.88;11.10;;;28.90;89.80;;;;;;5165703;27;20033;-50
2021/11/01 23:59:30;;;;;;;18.50;11.65;;;28.90;89.80;;;;;;5165959;27;20015;-47
